createdAt,value
2022-10-13T00:00:03.558Z,7.50
2022-10-13T00:03:10.125Z,7.57
2022-10-13T00:06:18.870Z,7.00
2022-10-13T00:09:26.582Z,7.50
2022-10-13T00:12:35.994Z,8.13
2022-10-13T00:15:44.541Z,7.43
2022-10-13T00:18:51.530Z,6.93
2022-10-13T00:21:57.934Z,6.00
2022-10-13T00:25:06.365Z,7.73
2022-10-13T00:28:13.331Z,6.43
2022-10-13T00:31:21.197Z,5.50
2022-10-13T00:34:27.415Z,5.57
2022-10-13T00:37:33.792Z,5.27
2022-10-13T00:40:48.948Z,8.87
2022-10-13T00:43:58.497Z,5.93
2022-10-13T00:47:04.804Z,7.73
2022-10-13T00:50:15.822Z,11.10
2022-10-13T00:53:24.406Z,8.53
2022-10-13T00:56:32.125Z,6.97
2022-10-13T00:59:40.462Z,14.43
2022-10-13T01:02:46.948Z,8.47
2022-10-13T01:05:55.814Z,6.80
2022-10-13T01:09:01.871Z,8.53
2022-10-13T01:12:20.675Z,8.33
2022-10-13T01:15:33.105Z,8.20
2022-10-13T01:18:46.491Z,6.03
2022-10-13T01:22:03.247Z,8.07
2022-10-13T01:25:25.141Z,7.53
2022-10-13T01:28:51.117Z,6.13
2022-10-13T01:32:08.311Z,7.03
2022-10-13T01:35:20.031Z,6.73
2022-10-13T01:38:34.679Z,5.97
2022-10-13T01:41:44.124Z,10.07
2022-10-13T01:44:54.091Z,11.73
2022-10-13T01:48:04.362Z,6.90
2022-10-13T01:51:15.771Z,7.37
2022-10-13T01:54:22.240Z,8.00
2022-10-13T01:57:33.039Z,5.77
2022-10-13T02:00:45.065Z,6.43
2022-10-13T02:04:02.602Z,6.03
2022-10-13T02:07:17.410Z,6.67
2022-10-13T02:10:28.550Z,5.97
2022-10-13T02:13:38.225Z,6.03
2022-10-13T02:16:47.621Z,6.00
2022-10-13T02:19:56.780Z,5.80
2022-10-13T02:23:08.472Z,6.00
2022-10-13T02:26:15.613Z,13.83
2022-10-13T02:29:22.546Z,6.30
2022-10-13T02:32:28.988Z,6.83
2022-10-13T02:35:36.859Z,10.30
2022-10-13T02:38:42.916Z,7.83
2022-10-13T02:41:49.495Z,8.00
2022-10-13T02:44:55.788Z,8.10
2022-10-13T02:48:02.032Z,6.07
2022-10-13T02:51:09.732Z,7.07
2022-10-13T02:54:15.855Z,6.67
2022-10-13T02:57:22.274Z,9.07
2022-10-13T03:00:28.533Z,11.17
2022-10-13T03:03:34.606Z,8.23
2022-10-13T03:06:42.125Z,6.60
2022-10-13T03:09:48.118Z,6.80
2022-10-13T03:12:55.699Z,5.90
2022-10-13T03:16:01.664Z,6.13
2022-10-13T03:19:07.888Z,4.83
2022-10-13T03:22:15.675Z,7.07
2022-10-13T03:25:21.643Z,7.17
2022-10-13T03:28:27.960Z,7.17
2022-10-13T03:31:33.876Z,6.57
2022-10-13T03:34:40.288Z,14.53
2022-10-13T03:37:47.943Z,12.90
2022-10-13T03:40:54.235Z,11.67
2022-10-13T03:44:00.533Z,14.77
2022-10-13T03:47:07.157Z,12.50
2022-10-13T03:50:13.270Z,10.97
2022-10-13T03:53:21.176Z,16.07
2022-10-13T03:56:28.629Z,8.63
2022-10-13T03:59:36.974Z,7.70
2022-10-13T04:02:43.722Z,8.47
2022-10-13T04:05:49.786Z,7.77
2022-10-13T04:08:57.290Z,7.10
2022-10-13T04:12:03.262Z,7.23
2022-10-13T04:15:10.786Z,7.97
2022-10-13T04:18:16.957Z,8.47
2022-10-13T04:21:24.659Z,6.67
2022-10-13T04:24:32.315Z,6.53
2022-10-13T04:27:39.580Z,7.17
2022-10-13T04:30:49.271Z,6.57
2022-10-13T04:33:56.022Z,5.80
2022-10-13T04:37:01.949Z,5.93
2022-10-13T04:40:10.675Z,5.30
2022-10-13T04:43:16.614Z,4.47
2022-10-13T04:46:24.901Z,4.73
2022-10-13T04:49:32.083Z,8.43
2022-10-13T04:52:38.148Z,15.03
2022-10-13T04:55:45.885Z,8.97
2022-10-13T04:58:52.080Z,7.67
2022-10-13T05:01:58.059Z,9.97
2022-10-13T05:05:04.314Z,6.17
2022-10-13T05:08:10.644Z,6.33
2022-10-13T05:11:20.115Z,9.57
2022-10-13T05:14:26.792Z,4.00
2022-10-13T05:17:35.356Z,4.70
2022-10-13T05:20:41.604Z,4.23
2022-10-13T05:23:48.215Z,4.67
2022-10-13T05:26:55.945Z,4.03
2022-10-13T05:30:02.248Z,3.70
2022-10-13T05:33:09.354Z,3.93
2022-10-13T05:36:19.686Z,3.07
2022-10-13T05:39:26.161Z,4.27
2022-10-13T05:42:34.308Z,3.63
2022-10-13T05:45:42.050Z,4.67
2022-10-13T05:48:48.432Z,3.67
2022-10-13T05:51:58.726Z,3.90
2022-10-13T05:55:10.355Z,5.83
2022-10-13T05:58:18.466Z,9.70
2022-10-13T06:01:26.543Z,10.80
2022-10-13T06:04:37.547Z,8.67
2022-10-13T06:07:44.928Z,8.17
2022-10-13T06:10:51.063Z,16.33
2022-10-13T06:13:59.023Z,9.57
2022-10-13T06:17:05.423Z,9.50
2022-10-13T06:20:12.476Z,7.60
2022-10-13T06:23:18.673Z,6.97
2022-10-13T06:26:24.760Z,5.30
2022-10-13T06:29:33.528Z,4.93
2022-10-13T06:32:39.638Z,5.40
2022-10-13T06:35:45.876Z,5.63
2022-10-13T06:38:52.146Z,6.17
2022-10-13T06:41:58.586Z,8.13
2022-10-13T06:45:06.891Z,10.90
2022-10-13T06:48:13.292Z,7.27
2022-10-13T06:51:19.995Z,11.10
2022-10-13T06:54:25.941Z,6.40
2022-10-13T06:57:32.370Z,6.77
2022-10-13T07:00:42.935Z,6.93
2022-10-13T07:03:50.650Z,6.37
2022-10-13T07:06:56.749Z,20.37
2022-10-13T07:10:03.164Z,10.37
2022-10-13T07:13:09.883Z,12.47
2022-10-13T07:16:17.884Z,7.43
2022-10-13T07:19:24.078Z,8.97
2022-10-13T07:22:31.060Z,6.40
2022-10-13T07:25:37.472Z,8.13
2022-10-13T07:28:44.207Z,11.13
2022-10-13T07:31:52.281Z,6.07
2022-10-13T07:34:58.348Z,5.27
2022-10-13T07:38:04.768Z,5.67
2022-10-13T07:41:12.722Z,4.77
2022-10-13T07:44:18.911Z,6.33
2022-10-13T07:47:26.536Z,5.27
2022-10-13T07:50:33.115Z,4.73
2022-10-13T07:53:40.351Z,6.10
2022-10-13T07:56:46.695Z,5.97
2022-10-13T07:59:52.814Z,7.23
2022-10-13T08:03:00.454Z,7.30
2022-10-13T08:06:08.176Z,6.73
2022-10-13T08:09:14.535Z,9.93
2022-10-13T08:12:21.356Z,11.50
2022-10-13T08:15:28.176Z,8.03
2022-10-13T08:18:36.060Z,6.80
2022-10-13T08:21:59.654Z,6.70
2022-10-13T08:25:07.385Z,8.17
2022-10-13T08:28:20.115Z,8.20
2022-10-13T08:31:26.146Z,8.00
2022-10-13T08:34:34.221Z,9.40
2022-10-13T08:37:39.978Z,10.57
2022-10-13T08:40:48.686Z,8.67
2022-10-13T08:44:33.953Z,7.20
2022-10-13T08:47:41.091Z,5.57
2022-10-13T08:50:52.033Z,5.57
2022-10-13T08:53:58.578Z,4.40
2022-10-13T08:57:06.709Z,7.33
2022-10-13T09:00:15.298Z,6.83
2022-10-13T09:03:25.172Z,4.97
2022-10-13T09:06:37.923Z,6.27
2022-10-13T09:09:44.172Z,5.67
2022-10-13T09:12:51.728Z,10.37
2022-10-13T09:15:59.606Z,4.90
2022-10-13T09:19:22.479Z,5.53
2022-10-13T09:22:31.207Z,5.73
2022-10-13T09:25:42.077Z,6.20
2022-10-13T10:41:05.668Z,5.00
2022-10-13T10:44:14.540Z,7.50
2022-10-13T10:47:26.388Z,3.93
2022-10-13T10:50:35.369Z,9.33
2022-10-13T10:53:50.193Z,3.60
2022-10-13T10:57:03.876Z,3.73
2022-10-13T11:00:16.642Z,3.40
2022-10-13T11:03:36.578Z,3.50
2022-10-13T11:06:42.482Z,3.60
2022-10-13T11:10:21.351Z,2.97
2022-10-13T11:13:28.742Z,3.53
2022-10-13T11:16:37.154Z,3.13
2022-10-13T11:19:43.567Z,3.27
2022-10-13T11:23:28.320Z,3.70
2022-10-13T11:26:43.747Z,3.83
2022-10-13T11:29:57.239Z,3.97
2022-10-13T11:33:09.393Z,4.30
2022-10-13T11:36:49.744Z,4.70
2022-10-13T11:40:17.199Z,3.77
2022-10-13T11:43:37.100Z,4.30
2022-10-13T11:47:02.795Z,4.50
2022-10-13T11:50:20.048Z,5.37
2022-10-13T11:53:32.818Z,3.67
2022-10-13T11:56:48.765Z,3.60
2022-10-13T11:59:56.888Z,5.10
2022-10-13T12:03:04.933Z,3.70
2022-10-13T12:06:33.241Z,3.80
2022-10-13T12:09:50.810Z,3.57
2022-10-13T12:12:58.448Z,3.70
2022-10-13T12:16:06.680Z,2.80
2022-10-13T12:19:22.568Z,2.93
2022-10-13T12:22:29.464Z,2.57
2022-10-13T12:25:35.482Z,2.73
2022-10-13T12:28:52.353Z,3.23
2022-10-13T12:31:59.646Z,3.90
2022-10-13T12:35:19.582Z,2.93
2022-10-13T12:38:26.104Z,3.60
2022-10-13T12:41:35.703Z,3.07
2022-10-13T12:44:42.877Z,3.57
2022-10-13T12:47:51.903Z,3.57
2022-10-13T12:51:17.407Z,3.27
2022-10-13T12:54:28.101Z,2.67
2022-10-13T12:57:38.529Z,4.60
2022-10-13T13:00:45.062Z,4.13
2022-10-13T13:03:57.268Z,3.63
2022-10-13T13:07:06.907Z,3.10
2022-10-13T13:10:19.128Z,3.40
2022-10-13T13:13:26.195Z,3.10
2022-10-13T13:16:32.337Z,3.83
2022-10-13T13:19:39.717Z,3.30
2022-10-13T13:22:47.413Z,3.73
2022-10-13T13:26:02.543Z,2.90
2022-10-13T13:29:11.712Z,2.70
2022-10-13T13:32:20.517Z,3.20
2022-10-13T13:35:27.052Z,3.30
2022-10-13T13:38:34.799Z,3.73
2022-10-13T13:41:40.792Z,3.90
2022-10-13T13:44:47.350Z,2.87
2022-10-13T13:47:56.881Z,3.67
2022-10-13T13:51:06.888Z,5.00
2022-10-13T13:54:14.572Z,7.53
2022-10-13T13:57:21.798Z,15.17
2022-10-13T14:00:28.600Z,10.57
2022-10-13T14:03:34.721Z,7.40
2022-10-13T14:06:40.924Z,6.40
2022-10-13T14:09:48.899Z,6.70
2022-10-13T14:12:55.758Z,6.07
2022-10-13T14:16:03.544Z,5.07
2022-10-13T14:19:10.395Z,4.43
2022-10-13T14:22:16.499Z,2.93
2022-10-13T14:25:24.103Z,4.53
2022-10-13T14:28:30.245Z,4.73
2022-10-13T14:31:36.615Z,5.00
2022-10-13T14:34:43.156Z,6.20
2022-10-13T14:37:49.498Z,6.10
2022-10-13T14:41:01.541Z,5.97
2022-10-13T14:44:07.541Z,12.47
2022-10-13T14:47:13.763Z,10.80
2022-10-13T14:50:20.214Z,7.33
2022-10-13T14:53:26.911Z,7.20
2022-10-13T14:56:34.425Z,5.60
2022-10-13T14:59:40.568Z,5.50
2022-10-13T15:02:46.682Z,5.17
2022-10-13T15:05:53.021Z,4.23
2022-10-13T15:08:59.690Z,5.63
2022-10-13T15:12:07.891Z,6.20
2022-10-13T15:15:14.424Z,22.33
2022-10-13T15:18:20.571Z,19.00
2022-10-13T15:21:27.249Z,19.33
2022-10-13T15:24:33.448Z,16.70
2022-10-13T15:27:42.209Z,17.20
2022-10-13T15:30:49.112Z,15.83
2022-10-13T15:33:55.513Z,17.53
2022-10-13T15:37:02.100Z,17.07
2022-10-13T15:40:09.874Z,15.27
2022-10-13T15:43:18.949Z,23.00
2022-10-13T15:46:26.415Z,28.83
2022-10-13T15:49:37.449Z,18.43
2022-10-13T15:52:43.761Z,18.13
2022-10-13T15:55:50.206Z,18.00
2022-10-13T15:58:57.709Z,18.50
2022-10-13T16:02:03.975Z,20.20
2022-10-13T16:05:13.278Z,19.53
2022-10-13T16:08:19.788Z,18.17
2022-10-13T16:11:26.716Z,14.43
2022-10-13T16:14:34.706Z,15.83
2022-10-13T16:17:41.306Z,25.50
2022-10-13T16:20:47.581Z,27.10
2022-10-13T16:23:54.113Z,33.70
2022-10-13T16:27:00.260Z,36.13
2022-10-13T16:30:09.426Z,38.43
2022-10-13T16:33:15.539Z,28.53
2022-10-13T16:36:22.893Z,30.83
2022-10-13T16:39:29.097Z,27.47
2022-10-13T16:42:35.517Z,31.33
2022-10-13T16:45:59.133Z,33.90
2022-10-13T16:49:06.498Z,33.83
2022-10-13T16:52:12.537Z,37.10
2022-10-13T16:55:18.916Z,41.03
2022-10-13T16:58:24.956Z,35.47
2022-10-13T17:01:34.075Z,30.17
2022-10-13T17:04:40.054Z,20.93
2022-10-13T17:07:46.403Z,22.77
2022-10-13T17:10:57.954Z,24.63
2022-10-13T17:14:05.667Z,25.73
2022-10-13T17:17:12.976Z,25.70
2022-10-13T17:20:19.450Z,22.67
2022-10-13T17:23:26.373Z,30.47
2022-10-13T17:26:32.576Z,31.33
2022-10-13T17:29:38.663Z,26.80
2022-10-13T17:32:46.239Z,23.20
2022-10-13T17:35:52.145Z,25.60
2022-10-13T17:39:03.059Z,23.47
2022-10-13T17:42:09.067Z,23.90
2022-10-13T17:45:15.099Z,25.13
2022-10-13T17:48:23.310Z,27.40
2022-10-13T17:51:29.890Z,27.77
2022-10-13T17:54:36.272Z,26.17
2022-10-13T17:57:42.676Z,23.17
2022-10-13T18:01:11.845Z,25.67
2022-10-13T18:04:20.018Z,28.00
2022-10-13T18:07:25.884Z,29.97
2022-10-13T18:10:50.859Z,28.97
2022-10-13T18:14:00.332Z,28.23
2022-10-13T18:17:06.319Z,26.53
2022-10-13T18:20:14.030Z,29.23
2022-10-13T18:23:19.804Z,28.23
2022-10-13T18:26:27.233Z,25.00
2022-10-13T18:29:33.502Z,17.30
2022-10-13T18:32:39.599Z,14.37
2022-10-13T18:35:46.963Z,14.90
2022-10-13T18:38:53.886Z,24.07
2022-10-13T18:42:00.018Z,23.27
2022-10-13T18:45:06.275Z,23.70
2022-10-13T18:48:12.852Z,24.57
2022-10-13T18:51:21.233Z,19.00
2022-10-13T18:54:29.062Z,18.53
2022-10-13T18:57:38.090Z,19.33
2022-10-13T19:00:44.407Z,19.83
2022-10-13T19:03:52.190Z,22.43
2022-10-13T19:06:59.742Z,23.37
2022-10-13T19:10:06.563Z,24.13
2022-10-13T19:13:12.657Z,24.53
2022-10-13T19:16:20.880Z,20.90
2022-10-13T19:19:27.257Z,19.93
2022-10-13T19:22:35.062Z,17.67
2022-10-13T19:25:43.066Z,18.70
2022-10-13T19:28:49.306Z,17.43
2022-10-13T19:31:55.595Z,27.67
2022-10-13T19:35:01.892Z,20.70
2022-10-13T19:38:10.575Z,20.67
2022-10-13T19:41:16.827Z,21.73
2022-10-13T19:44:24.576Z,18.07
2022-10-13T19:47:30.825Z,20.47
2022-10-13T19:50:37.051Z,23.17
2022-10-13T19:53:45.234Z,20.87
2022-10-13T19:56:52.056Z,18.60
2022-10-13T19:59:58.366Z,11.23
2022-10-13T20:03:05.364Z,11.67
2022-10-13T20:06:11.515Z,31.17
2022-10-13T20:09:19.546Z,23.07
2022-10-13T20:12:26.031Z,18.53
2022-10-13T20:15:32.255Z,18.73
2022-10-13T20:18:38.989Z,14.43
2022-10-13T20:21:45.031Z,14.90
2022-10-13T20:24:52.669Z,15.63
2022-10-13T20:27:58.506Z,14.33
2022-10-13T20:31:06.145Z,11.10
2022-10-13T20:34:12.668Z,11.30
2022-10-13T20:37:18.990Z,11.33
2022-10-13T20:40:26.618Z,12.73
2022-10-13T20:43:32.891Z,10.97
2022-10-13T20:46:39.467Z,11.83
2022-10-13T20:49:45.583Z,18.83
2022-10-13T20:52:51.939Z,11.13
2022-10-13T20:56:00.839Z,9.57
2022-10-13T20:59:08.828Z,8.87
2022-10-13T21:02:16.749Z,9.23
2022-10-13T21:05:22.849Z,10.33
2022-10-13T21:08:29.252Z,12.83
2022-10-13T21:11:38.191Z,10.70
2022-10-13T21:14:44.311Z,10.00
2022-10-13T21:17:52.213Z,9.83
2022-10-13T21:21:03.845Z,9.87
2022-10-13T21:24:11.527Z,11.43
2022-10-13T21:27:19.728Z,9.17
2022-10-13T21:30:26.675Z,8.17
2022-10-13T21:33:35.518Z,8.30
2022-10-13T21:36:44.571Z,7.63
2022-10-13T21:39:50.922Z,6.43
2022-10-13T21:42:58.332Z,6.27
2022-10-13T21:46:16.118Z,6.93
2022-10-13T21:49:22.118Z,6.33
2022-10-13T21:52:28.599Z,8.33
2022-10-13T21:55:34.527Z,8.93
2022-10-13T21:58:42.318Z,8.37
2022-10-13T22:01:48.340Z,8.20
2022-10-13T22:04:54.780Z,8.50
2022-10-13T22:08:01.476Z,8.80
2022-10-13T22:11:09.816Z,8.53
2022-10-13T22:14:17.296Z,8.20
2022-10-13T22:17:24.107Z,8.10
2022-10-13T22:20:30.127Z,7.50
2022-10-13T22:23:36.514Z,6.57
2022-10-13T22:26:44.295Z,7.10
2022-10-13T22:29:52.024Z,7.23
2022-10-13T22:32:58.291Z,7.07
2022-10-13T22:36:08.581Z,7.63
2022-10-13T22:39:15.591Z,8.50
2022-10-13T22:42:22.357Z,8.17
2022-10-13T22:45:29.626Z,8.40
2022-10-13T22:48:40.353Z,7.23
2022-10-13T22:51:46.684Z,7.30
2022-10-13T22:54:52.900Z,6.17
2022-10-13T22:57:59.169Z,6.83
2022-10-13T23:01:11.413Z,5.77
2022-10-13T23:04:17.349Z,5.77
2022-10-13T23:07:23.748Z,5.50
2022-10-13T23:10:30.070Z,6.17
2022-10-13T23:13:36.622Z,6.87
2022-10-13T23:16:44.157Z,6.80
2022-10-13T23:19:50.198Z,6.30
2022-10-13T23:22:56.477Z,6.53
2022-10-13T23:26:04.463Z,7.60
2022-10-13T23:29:11.286Z,6.63
2022-10-13T23:32:18.784Z,6.47
2022-10-13T23:35:25.059Z,6.47
2022-10-13T23:38:33.029Z,5.47
2022-10-13T23:41:39.518Z,7.00
2022-10-13T23:44:45.602Z,6.00
2022-10-13T23:47:53.336Z,7.50
2022-10-13T23:50:59.780Z,6.07
2022-10-13T23:54:06.051Z,6.30
2022-10-13T23:57:12.168Z,6.37
